Terminal Aerodrome Forecast
Issued by NWS

Home | Current Version | Previous Version | Text Only | Print | Product List | Glossary On
Versions: 1 2 3 4 5 6 7 8 9 10 11 12 13 14 15 16 17 18 19
000
FTUS46 KMTR 142326
TAFSTS
TAF
KSTS 142326Z 1500/1524 VRB03KT P6SM SCT250
     FM150700 00000KT 1/2SM FG VV002
      TEMPO 1512/1516 1SM BR BKN002
     FM151600 00000KT P6SM FEW200
     FM152100 VRB03KT P6SM SCT200=

USA.gov is the U.S. government's official web portal to all federal, state and local government web resources and services.